sensor_id;sensor_type;location;lat;lon;timestamp;temperature;humidity
19025;DHT22;9645;51.448;6.260;2023-02-01T00:02:14;5.40;99.90
19025;DHT22;9645;51.448;6.260;2023-02-01T00:04:41;5.40;99.90
19025;DHT22;9645;51.448;6.260;2023-02-01T00:07:09;5.40;99.90
19025;DHT22;9645;51.448;6.260;2023-02-01T00:12:06;5.50;99.90
19025;DHT22;9645;51.448;6.260;2023-02-01T00:14:33;5.40;99.90
19025;DHT22;9645;51.448;6.260;2023-02-01T00:17:04;5.40;99.90
19025;DHT22;9645;51.448;6.260;2023-02-01T00:19:32;5.40;99.90
19025;DHT22;9645;51.448;6.260;2023-02-01T00:24:26;5.40;99.90
19025;DHT22;9645;51.448;6.260;2023-02-01T00:26:53;5.30;99.90
19025;DHT22;9645;51.448;6.260;2023-02-01T00:29:21;5.30;99.90
19025;DHT22;9645;51.448;6.260;2023-02-01T00:31:50;5.20;99.90
19025;DHT22;9645;51.448;6.260;2023-02-01T00:34:18;5.20;99.90
19025;DHT22;9645;51.448;6.260;2023-02-01T00:36:45;5.20;99.90
19025;DHT22;9645;51.448;6.260;2023-02-01T00:39:12;5.30;99.90
19025;DHT22;9645;51.448;6.260;2023-02-01T00:44:07;5.20;99.90
19025;DHT22;9645;51.448;6.260;2023-02-01T00:46:35;5.20;99.90
19025;DHT22;9645;51.448;6.260;2023-02-01T00:49:02;5.20;99.90
19025;DHT22;9645;51.448;6.260;2023-02-01T00:51:29;5.20;99.90
19025;DHT22;9645;51.448;6.260;2023-02-01T00:53:57;5.20;99.90
19025;DHT22;9645;51.448;6.260;2023-02-01T01:01:21;5.10;99.90
19025;DHT22;9645;51.448;6.260;2023-02-01T01:03:51;5.00;99.90
19025;DHT22;9645;51.448;6.260;2023-02-01T01:06:21;5.00;99.90
19025;DHT22;9645;51.448;6.260;2023-02-01T01:08:50;5.00;99.90
19025;DHT22;9645;51.448;6.260;2023-02-01T01:11:19;4.90;99.90
19025;DHT22;9645;51.448;6.260;2023-02-01T01:13:47;5.00;99.90
19025;DHT22;9645;51.448;6.260;2023-02-01T01:16:14;5.10;99.90
19025;DHT22;9645;51.448;6.260;2023-02-01T01:18:42;5.10;99.90
19025;DHT22;9645;51.448;6.260;2023-02-01T01:21:13;5.10;99.90
19025;DHT22;9645;51.448;6.260;2023-02-01T01:23:40;5.10;99.90
19025;DHT22;9645;51.448;6.260;2023-02-01T01:26:09;5.10;99.90
19025;DHT22;9645;51.448;6.260;2023-02-01T01:31:03;5.10;99.90
19025;DHT22;9645;51.448;6.260;2023-02-01T01:35:58;5.00;99.90
19025;DHT22;9645;51.448;6.260;2023-02-01T01:38:26;5.00;99.90
19025;DHT22;9645;51.448;6.260;2023-02-01T01:43:20;4.90;99.90
19025;DHT22;9645;51.448;6.260;2023-02-01T01:45:49;5.00;99.90
19025;DHT22;9645;51.448;6.260;2023-02-01T01:48:18;5.00;99.90
19025;DHT22;9645;51.448;6.260;2023-02-01T01:50:51;4.90;99.90
19025;DHT22;9645;51.448;6.260;2023-02-01T01:53:21;4.90;99.90
19025;DHT22;9645;51.448;6.260;2023-02-01T01:55:51;4.90;99.90
19025;DHT22;9645;51.448;6.260;2023-02-01T01:58:23;4.90;99.90
19025;DHT22;9645;51.448;6.260;2023-02-01T02:00:50;4.80;99.90
19025;DHT22;9645;51.448;6.260;2023-02-01T02:03:20;4.80;99.90
19025;DHT22;9645;51.448;6.260;2023-02-01T02:05:50;4.70;99.90
19025;DHT22;9645;51.448;6.260;2023-02-01T02:08:18;4.70;99.90
19025;DHT22;9645;51.448;6.260;2023-02-01T02:10:46;4.70;99.90
19025;DHT22;9645;51.448;6.260;2023-02-01T02:13:32;4.60;99.90
19025;DHT22;9645;51.448;6.260;2023-02-01T02:16:26;4.60;99.90
19025;DHT22;9645;51.448;6.260;2023-02-01T02:21:56;4.50;99.90
19025;DHT22;9645;51.448;6.260;2023-02-01T02:24:49;4.40;99.90
19025;DHT22;9645;51.448;6.260;2023-02-01T02:27:29;4.40;99.90
19025;DHT22;9645;51.448;6.260;2023-02-01T02:30:34;4.30;99.90
19025;DHT22;9645;51.448;6.260;2023-02-01T02:33:40;6.60;99.90
19025;DHT22;9645;51.448;6.260;2023-02-01T02:36:12;4.20;99.90
19025;DHT22;9645;51.448;6.260;2023-02-01T02:38:47;4.20;99.90
19025;DHT22;9645;51.448;6.260;2023-02-01T02:41:19;4.20;99.90
19025;DHT22;9645;51.448;6.260;2023-02-01T02:44:05;4.20;99.90
19025;DHT22;9645;51.448;6.260;2023-02-01T02:46:53;4.10;99.90
19025;DHT22;9645;51.448;6.260;2023-02-01T02:49:49;4.10;99.90
19025;DHT22;9645;51.448;6.260;2023-02-01T02:52:40;4.10;99.90
19025;DHT22;9645;51.448;6.260;2023-02-01T02:55:26;4.10;99.90
19025;DHT22;9645;51.448;6.260;2023-02-01T02:57:55;4.30;99.90
19025;DHT22;9645;51.448;6.260;2023-02-01T03:00:40;4.40;99.90
19025;DHT22;9645;51.448;6.260;2023-02-01T03:03:26;4.40;99.90
19025;DHT22;9645;51.448;6.260;2023-02-01T03:06:15;4.40;99.90
19025;DHT22;9645;51.448;6.260;2023-02-01T03:08:44;4.40;99.90
19025;DHT22;9645;51.448;6.260;2023-02-01T03:11:13;4.50;99.90
19025;DHT22;9645;51.448;6.260;2023-02-01T03:13:45;4.50;99.90
19025;DHT22;9645;51.448;6.260;2023-02-01T03:16:17;4.40;99.90
19025;DHT22;9645;51.448;6.260;2023-02-01T03:18:51;4.60;99.90
19025;DHT22;9645;51.448;6.260;2023-02-01T03:21:24;4.70;99.90
19025;DHT22;9645;51.448;6.260;2023-02-01T03:23:53;4.70;99.90
19025;DHT22;9645;51.448;6.260;2023-02-01T03:26:22;4.70;99.90
19025;DHT22;9645;51.448;6.260;2023-02-01T03:28:55;4.80;99.90
19025;DHT22;9645;51.448;6.260;2023-02-01T03:31:24;4.80;99.90
19025;DHT22;9645;51.448;6.260;2023-02-01T03:33:51;4.70;99.90
19025;DHT22;9645;51.448;6.260;2023-02-01T03:36:24;4.70;99.90
19025;DHT22;9645;51.448;6.260;2023-02-01T03:38:57;4.70;99.90
19025;DHT22;9645;51.448;6.260;2023-02-01T03:41:28;4.70;99.90
19025;DHT22;9645;51.448;6.260;2023-02-01T03:44:06;4.70;99.90
19025;DHT22;9645;51.448;6.260;2023-02-01T03:46:40;4.80;99.90
19025;DHT22;9645;51.448;6.260;2023-02-01T03:49:11;4.80;99.90
19025;DHT22;9645;51.448;6.260;2023-02-01T03:51:41;4.90;99.90
19025;DHT22;9645;51.448;6.260;2023-02-01T03:54:11;4.90;99.90
19025;DHT22;9645;51.448;6.260;2023-02-01T03:56:43;4.80;99.90
19025;DHT22;9645;51.448;6.260;2023-02-01T03:59:11;4.80;99.90
19025;DHT22;9645;51.448;6.260;2023-02-01T04:01:39;4.90;99.90
19025;DHT22;9645;51.448;6.260;2023-02-01T04:06:34;4.80;99.90
19025;DHT22;9645;51.448;6.260;2023-02-01T04:09:03;4.70;99.90
19025;DHT22;9645;51.448;6.260;2023-02-01T04:11:30;4.70;99.90
19025;DHT22;9645;51.448;6.260;2023-02-01T04:13:57;4.70;99.90
19025;DHT22;9645;51.448;6.260;2023-02-01T04:21:18;4.70;99.90
19025;DHT22;9645;51.448;6.260;2023-02-01T04:26:14;4.60;99.90
19025;DHT22;9645;51.448;6.260;2023-02-01T04:31:09;4.50;99.90
19025;DHT22;9645;51.448;6.260;2023-02-01T04:36:03;4.60;99.90
19025;DHT22;9645;51.448;6.260;2023-02-01T04:40:58;4.50;99.90
19025;DHT22;9645;51.448;6.260;2023-02-01T04:43:26;4.50;99.90
19025;DHT22;9645;51.448;6.260;2023-02-01T04:45:53;4.50;99.90
19025;DHT22;9645;51.448;6.260;2023-02-01T04:48:20;4.50;99.90
19025;DHT22;9645;51.448;6.260;2023-02-01T04:50:48;4.50;99.90
19025;DHT22;9645;51.448;6.260;2023-02-01T04:53:16;4.40;99.90
19025;DHT22;9645;51.448;6.260;2023-02-01T04:55:43;4.40;99.90
19025;DHT22;9645;51.448;6.260;2023-02-01T04:58:11;4.40;99.90
19025;DHT22;9645;51.448;6.260;2023-02-01T05:00:39;4.40;99.90
19025;DHT22;9645;51.448;6.260;2023-02-01T05:05:33;4.40;99.90
19025;DHT22;9645;51.448;6.260;2023-02-01T05:08:00;4.40;99.90
19025;DHT22;9645;51.448;6.260;2023-02-01T05:10:27;4.40;99.90
19025;DHT22;9645;51.448;6.260;2023-02-01T05:12:54;4.40;99.90
19025;DHT22;9645;51.448;6.260;2023-02-01T05:15:40;4.40;99.90
19025;DHT22;9645;51.448;6.260;2023-02-01T05:18:07;4.30;99.90
19025;DHT22;9645;51.448;6.260;2023-02-01T05:20:34;4.40;99.90
19025;DHT22;9645;51.448;6.260;2023-02-01T05:23:01;4.40;99.90
19025;DHT22;9645;51.448;6.260;2023-02-01T05:25:28;4.30;99.90
19025;DHT22;9645;51.448;6.260;2023-02-01T05:27:55;4.30;99.90
19025;DHT22;9645;51.448;6.260;2023-02-01T05:32:51;4.30;99.90
19025;DHT22;9645;51.448;6.260;2023-02-01T05:37:45;4.30;99.90
19025;DHT22;9645;51.448;6.260;2023-02-01T05:40:12;4.40;99.90
19025;DHT22;9645;51.448;6.260;2023-02-01T05:45:08;4.40;99.90
19025;DHT22;9645;51.448;6.260;2023-02-01T05:47:35;4.40;99.90
19025;DHT22;9645;51.448;6.260;2023-02-01T05:50:04;4.50;99.90
19025;DHT22;9645;51.448;6.260;2023-02-01T05:54:59;4.60;99.90
19025;DHT22;9645;51.448;6.260;2023-02-01T05:57:26;4.60;99.90
19025;DHT22;9645;51.448;6.260;2023-02-01T06:04:49;4.60;99.90
19025;DHT22;9645;51.448;6.260;2023-02-01T06:07:18;4.70;99.90
19025;DHT22;9645;51.448;6.260;2023-02-01T06:09:48;4.70;99.90
19025;DHT22;9645;51.448;6.260;2023-02-01T06:12:17;4.70;99.90
19025;DHT22;9645;51.448;6.260;2023-02-01T06:14:44;4.70;99.90
19025;DHT22;9645;51.448;6.260;2023-02-01T06:17:11;4.70;99.90
19025;DHT22;9645;51.448;6.260;2023-02-01T06:19:39;4.80;99.90
19025;DHT22;9645;51.448;6.260;2023-02-01T06:22:06;4.70;99.90
19025;DHT22;9645;51.448;6.260;2023-02-01T06:24:39;4.70;99.90
19025;DHT22;9645;51.448;6.260;2023-02-01T06:27:08;4.70;99.90
19025;DHT22;9645;51.448;6.260;2023-02-01T06:32:04;4.80;99.90
19025;DHT22;9645;51.448;6.260;2023-02-01T06:34:31;4.80;99.90
19025;DHT22;9645;51.448;6.260;2023-02-01T06:36:58;4.80;99.90
19025;DHT22;9645;51.448;6.260;2023-02-01T06:41:54;4.80;99.90
19025;DHT22;9645;51.448;6.260;2023-02-01T06:44:21;4.80;99.90
19025;DHT22;9645;51.448;6.260;2023-02-01T06:46:48;4.80;99.90
19025;DHT22;9645;51.448;6.260;2023-02-01T06:49:16;4.80;99.90
19025;DHT22;9645;51.448;6.260;2023-02-01T06:54:11;3.80;99.90
19025;DHT22;9645;51.448;6.260;2023-02-01T06:56:38;4.90;99.90
19025;DHT22;9645;51.448;6.260;2023-02-01T06:59:07;4.90;99.90
19025;DHT22;9645;51.448;6.260;2023-02-01T07:01:34;4.90;99.90
19025;DHT22;9645;51.448;6.260;2023-02-01T07:04:02;5.00;99.90
19025;DHT22;9645;51.448;6.260;2023-02-01T07:06:29;4.90;99.90
19025;DHT22;9645;51.448;6.260;2023-02-01T07:08:59;5.00;99.90
19025;DHT22;9645;51.448;6.260;2023-02-01T07:11:26;5.00;99.90
19025;DHT22;9645;51.448;6.260;2023-02-01T07:16:22;5.10;99.90
19025;DHT22;9645;51.448;6.260;2023-02-01T07:18:50;5.10;99.90
19025;DHT22;9645;51.448;6.260;2023-02-01T07:23:46;5.20;99.90
19025;DHT22;9645;51.448;6.260;2023-02-01T07:26:14;5.10;99.90
19025;DHT22;9645;51.448;6.260;2023-02-01T07:28:42;5.20;99.90
19025;DHT22;9645;51.448;6.260;2023-02-01T07:31:11;5.10;99.90
19025;DHT22;9645;51.448;6.260;2023-02-01T07:33:40;5.20;99.90
19025;DHT22;9645;51.448;6.260;2023-02-01T07:36:12;5.10;99.90
19025;DHT22;9645;51.448;6.260;2023-02-01T07:41:08;5.10;99.90
19025;DHT22;9645;51.448;6.260;2023-02-01T07:43:36;5.00;99.90
19025;DHT22;9645;51.448;6.260;2023-02-01T07:46:04;4.90;99.90
19025;DHT22;9645;51.448;6.260;2023-02-01T07:48:32;5.00;99.90
19025;DHT22;9645;51.448;6.260;2023-02-01T07:51:02;5.00;99.90
19025;DHT22;9645;51.448;6.260;2023-02-01T07:53:31;5.00;99.90
19025;DHT22;9645;51.448;6.260;2023-02-01T07:58:26;5.00;99.90
19025;DHT22;9645;51.448;6.260;2023-02-01T08:00:54;5.00;99.90
19025;DHT22;9645;51.448;6.260;2023-02-01T08:03:38;5.00;99.90
19025;DHT22;9645;51.448;6.260;2023-02-01T08:06:07;5.00;99.90
19025;DHT22;9645;51.448;6.260;2023-02-01T08:08:34;5.00;99.90
19025;DHT22;9645;51.448;6.260;2023-02-01T08:11:02;5.00;99.90
19025;DHT22;9645;51.448;6.260;2023-02-01T08:13:30;5.10;99.90
19025;DHT22;9645;51.448;6.260;2023-02-01T08:15:58;5.20;99.90
19025;DHT22;9645;51.448;6.260;2023-02-01T08:18:26;5.10;99.90
19025;DHT22;9645;51.448;6.260;2023-02-01T08:20:53;5.10;99.90
19025;DHT22;9645;51.448;6.260;2023-02-01T08:23:22;5.20;99.90
19025;DHT22;9645;51.448;6.260;2023-02-01T08:28:16;5.30;99.90
19025;DHT22;9645;51.448;6.260;2023-02-01T08:35:38;5.40;99.90
19025;DHT22;9645;51.448;6.260;2023-02-01T08:40:34;5.30;99.90
19025;DHT22;9645;51.448;6.260;2023-02-01T08:45:29;5.40;99.90
19025;DHT22;9645;51.448;6.260;2023-02-01T08:47:57;5.50;99.90
19025;DHT22;9645;51.448;6.260;2023-02-01T08:50:24;5.40;99.90
19025;DHT22;9645;51.448;6.260;2023-02-01T08:52:51;5.40;99.90
19025;DHT22;9645;51.448;6.260;2023-02-01T08:55:19;5.40;99.90
19025;DHT22;9645;51.448;6.260;2023-02-01T08:57:47;5.30;99.90
19025;DHT22;9645;51.448;6.260;2023-02-01T09:00:16;5.30;99.90
19025;DHT22;9645;51.448;6.260;2023-02-01T09:02:44;5.40;99.90
19025;DHT22;9645;51.448;6.260;2023-02-01T09:05:12;5.30;99.90
19025;DHT22;9645;51.448;6.260;2023-02-01T09:07:42;5.40;99.90
19025;DHT22;9645;51.448;6.260;2023-02-01T09:10:10;5.40;99.90
19025;DHT22;9645;51.448;6.260;2023-02-01T09:12:37;5.40;99.90
19025;DHT22;9645;51.448;6.260;2023-02-01T09:15:07;5.40;99.90
19025;DHT22;9645;51.448;6.260;2023-02-01T09:17:34;5.60;99.90
19025;DHT22;9645;51.448;6.260;2023-02-01T09:20:01;5.60;99.90
19025;DHT22;9645;51.448;6.260;2023-02-01T09:22:29;5.70;99.90
19025;DHT22;9645;51.448;6.260;2023-02-01T09:24:56;5.80;99.90
19025;DHT22;9645;51.448;6.260;2023-02-01T09:27:23;5.60;99.90
19025;DHT22;9645;51.448;6.260;2023-02-01T09:29:50;5.90;99.90
19025;DHT22;9645;51.448;6.260;2023-02-01T09:32:19;5.90;99.90
19025;DHT22;9645;51.448;6.260;2023-02-01T09:37:14;6.00;99.90
19025;DHT22;9645;51.448;6.260;2023-02-01T09:42:18;6.00;99.90
19025;DHT22;9645;51.448;6.260;2023-02-01T09:44:59;6.10;99.90
19025;DHT22;9645;51.448;6.260;2023-02-01T09:47:33;6.10;99.90
19025;DHT22;9645;51.448;6.260;2023-02-01T09:50:04;6.10;99.90
19025;DHT22;9645;51.448;6.260;2023-02-01T09:52:38;6.20;99.90
19025;DHT22;9645;51.448;6.260;2023-02-01T09:55:10;6.20;99.90
19025;DHT22;9645;51.448;6.260;2023-02-01T09:57:47;6.20;99.90
19025;DHT22;9645;51.448;6.260;2023-02-01T10:00:19;6.20;99.90
19025;DHT22;9645;51.448;6.260;2023-02-01T10:02:49;6.20;99.90
19025;DHT22;9645;51.448;6.260;2023-02-01T10:05:26;6.30;99.90
19025;DHT22;9645;51.448;6.260;2023-02-01T10:08:00;6.30;99.90
19025;DHT22;9645;51.448;6.260;2023-02-01T10:10:32;6.30;99.90
19025;DHT22;9645;51.448;6.260;2023-02-01T10:13:21;4.40;99.90
19025;DHT22;9645;51.448;6.260;2023-02-01T10:16:00;6.40;99.90
19025;DHT22;9645;51.448;6.260;2023-02-01T10:18:40;6.40;99.90
19025;DHT22;9645;51.448;6.260;2023-02-01T10:21:23;6.50;99.90
19025;DHT22;9645;51.448;6.260;2023-02-01T10:26:47;6.40;99.90
19025;DHT22;9645;51.448;6.260;2023-02-01T10:29:20;6.50;99.90
19025;DHT22;9645;51.448;6.260;2023-02-01T10:31:49;6.60;99.90
19025;DHT22;9645;51.448;6.260;2023-02-01T10:34:21;6.50;99.90
19025;DHT22;9645;51.448;6.260;2023-02-01T10:36:55;6.50;99.90
19025;DHT22;9645;51.448;6.260;2023-02-01T10:39:22;6.60;99.90
19025;DHT22;9645;51.448;6.260;2023-02-01T10:41:49;6.60;99.90
19025;DHT22;9645;51.448;6.260;2023-02-01T10:44:19;6.60;99.90
19025;DHT22;9645;51.448;6.260;2023-02-01T10:46:48;6.70;99.90
19025;DHT22;9645;51.448;6.260;2023-02-01T10:49:19;6.80;99.90
19025;DHT22;9645;51.448;6.260;2023-02-01T10:51:52;6.70;99.90
19025;DHT22;9645;51.448;6.260;2023-02-01T10:54:22;6.80;99.90
19025;DHT22;9645;51.448;6.260;2023-02-01T10:56:58;6.80;99.90
19025;DHT22;9645;51.448;6.260;2023-02-01T10:59:27;6.80;99.90
19025;DHT22;9645;51.448;6.260;2023-02-01T11:01:59;6.80;99.90
19025;DHT22;9645;51.448;6.260;2023-02-01T11:04:33;7.00;99.90
19025;DHT22;9645;51.448;6.260;2023-02-01T11:07:13;7.00;99.90
19025;DHT22;9645;51.448;6.260;2023-02-01T11:09:49;7.00;99.90
19025;DHT22;9645;51.448;6.260;2023-02-01T11:12:27;7.00;99.90
19025;DHT22;9645;51.448;6.260;2023-02-01T11:15:00;7.00;99.90
19025;DHT22;9645;51.448;6.260;2023-02-01T11:17:34;7.10;99.90
19025;DHT22;9645;51.448;6.260;2023-02-01T11:20:12;7.00;99.90
19025;DHT22;9645;51.448;6.260;2023-02-01T11:22:45;7.10;99.90
19025;DHT22;9645;51.448;6.260;2023-02-01T11:25:15;7.10;99.90
19025;DHT22;9645;51.448;6.260;2023-02-01T11:27:43;7.00;99.90
19025;DHT22;9645;51.448;6.260;2023-02-01T11:30:15;7.10;99.90
19025;DHT22;9645;51.448;6.260;2023-02-01T11:32:44;7.30;99.90
19025;DHT22;9645;51.448;6.260;2023-02-01T11:35:16;7.40;99.90
19025;DHT22;9645;51.448;6.260;2023-02-01T11:37:50;7.50;99.90
19025;DHT22;9645;51.448;6.260;2023-02-01T11:40:27;7.50;99.90
19025;DHT22;9645;51.448;6.260;2023-02-01T11:42:56;7.50;99.90
19025;DHT22;9645;51.448;6.260;2023-02-01T11:45:28;7.60;99.90
19025;DHT22;9645;51.448;6.260;2023-02-01T11:47:56;7.60;99.90
19025;DHT22;9645;51.448;6.260;2023-02-01T11:50:31;7.70;99.90
19025;DHT22;9645;51.448;6.260;2023-02-01T11:53:13;7.70;99.90
19025;DHT22;9645;51.448;6.260;2023-02-01T11:55:53;7.60;99.90
19025;DHT22;9645;51.448;6.260;2023-02-01T11:58:37;7.60;99.90
19025;DHT22;9645;51.448;6.260;2023-02-01T12:01:24;7.60;99.90
19025;DHT22;9645;51.448;6.260;2023-02-01T12:04:24;7.60;99.90
19025;DHT22;9645;51.448;6.260;2023-02-01T12:07:04;7.60;99.90
19025;DHT22;9645;51.448;6.260;2023-02-01T12:09:42;7.60;99.90
19025;DHT22;9645;51.448;6.260;2023-02-01T12:12:17;7.60;99.90
19025;DHT22;9645;51.448;6.260;2023-02-01T12:15:04;7.60;99.90
19025;DHT22;9645;51.448;6.260;2023-02-01T12:17:52;7.50;99.90
19025;DHT22;9645;51.448;6.260;2023-02-01T12:20:54;7.60;99.90
19025;DHT22;9645;51.448;6.260;2023-02-01T12:23:38;7.60;99.90
19025;DHT22;9645;51.448;6.260;2023-02-01T12:26:31;7.50;99.90
19025;DHT22;9645;51.448;6.260;2023-02-01T12:32:20;7.60;99.90
19025;DHT22;9645;51.448;6.260;2023-02-01T12:35:19;7.50;99.90
19025;DHT22;9645;51.448;6.260;2023-02-01T12:37:59;7.50;99.90
19025;DHT22;9645;51.448;6.260;2023-02-01T12:40:43;7.50;99.90
19025;DHT22;9645;51.448;6.260;2023-02-01T12:43:17;7.60;99.90
19025;DHT22;9645;51.448;6.260;2023-02-01T12:45:51;7.60;99.90
19025;DHT22;9645;51.448;6.260;2023-02-01T12:48:29;7.70;99.90
19025;DHT22;9645;51.448;6.260;2023-02-01T12:51:02;7.70;99.90
19025;DHT22;9645;51.448;6.260;2023-02-01T12:53:41;7.70;99.90
19025;DHT22;9645;51.448;6.260;2023-02-01T12:56:14;7.60;99.90
19025;DHT22;9645;51.448;6.260;2023-02-01T12:58:45;7.70;99.90
19025;DHT22;9645;51.448;6.260;2023-02-01T13:01:17;7.60;99.90
19025;DHT22;9645;51.448;6.260;2023-02-01T13:03:54;7.60;99.90
19025;DHT22;9645;51.448;6.260;2023-02-01T13:06:26;7.60;99.90
19025;DHT22;9645;51.448;6.260;2023-02-01T13:08:59;7.60;99.90
19025;DHT22;9645;51.448;6.260;2023-02-01T13:11:31;7.60;99.90
19025;DHT22;9645;51.448;6.260;2023-02-01T13:14:03;7.60;99.90
19025;DHT22;9645;51.448;6.260;2023-02-01T13:16:35;7.60;99.90
19025;DHT22;9645;51.448;6.260;2023-02-01T13:19:10;7.70;99.90
19025;DHT22;9645;51.448;6.260;2023-02-01T13:21:42;7.70;99.90
19025;DHT22;9645;51.448;6.260;2023-02-01T13:24:30;7.60;99.90
19025;DHT22;9645;51.448;6.260;2023-02-01T13:27:00;7.80;99.90
19025;DHT22;9645;51.448;6.260;2023-02-01T13:29:28;7.70;99.90
19025;DHT22;9645;51.448;6.260;2023-02-01T13:32:21;7.80;99.90
19025;DHT22;9645;51.448;6.260;2023-02-01T13:38:15;7.80;99.90
19025;DHT22;9645;51.448;6.260;2023-02-01T13:40:53;7.90;99.90
19025;DHT22;9645;51.448;6.260;2023-02-01T13:43:27;8.00;99.90
19025;DHT22;9645;51.448;6.260;2023-02-01T13:45:56;8.10;99.90
19025;DHT22;9645;51.448;6.260;2023-02-01T13:48:28;8.10;99.90
19025;DHT22;9645;51.448;6.260;2023-02-01T13:50:57;8.00;99.90
19025;DHT22;9645;51.448;6.260;2023-02-01T13:53:28;8.10;99.90
19025;DHT22;9645;51.448;6.260;2023-02-01T13:55:59;7.90;99.90
19025;DHT22;9645;51.448;6.260;2023-02-01T13:58:33;8.10;99.90
19025;DHT22;9645;51.448;6.260;2023-02-01T14:07:18;8.00;99.90
19025;DHT22;9645;51.448;6.260;2023-02-01T14:09:45;8.10;99.90
19025;DHT22;9645;51.448;6.260;2023-02-01T14:12:47;8.00;99.90
19025;DHT22;9645;51.448;6.260;2023-02-01T14:15:27;8.10;99.90
19025;DHT22;9645;51.448;6.260;2023-02-01T14:17:54;8.10;99.90
19025;DHT22;9645;51.448;6.260;2023-02-01T14:20:48;8.20;99.90
19025;DHT22;9645;51.448;6.260;2023-02-01T14:23:30;8.20;99.90
19025;DHT22;9645;51.448;6.260;2023-02-01T14:26:16;8.20;99.90
19025;DHT22;9645;51.448;6.260;2023-02-01T14:28:47;8.30;99.90
19025;DHT22;9645;51.448;6.260;2023-02-01T14:31:46;8.20;99.90
19025;DHT22;9645;51.448;6.260;2023-02-01T14:34:30;8.20;99.90
19025;DHT22;9645;51.448;6.260;2023-02-01T14:36:59;8.20;99.90
19025;DHT22;9645;51.448;6.260;2023-02-01T14:39:35;8.20;99.90
19025;DHT22;9645;51.448;6.260;2023-02-01T14:42:12;8.20;99.90
19025;DHT22;9645;51.448;6.260;2023-02-01T14:44:41;8.10;99.90
19025;DHT22;9645;51.448;6.260;2023-02-01T14:50:23;8.10;99.90
19025;DHT22;9645;51.448;6.260;2023-02-01T14:53:02;8.10;99.90
19025;DHT22;9645;51.448;6.260;2023-02-01T14:55:35;8.20;99.90
19025;DHT22;9645;51.448;6.260;2023-02-01T14:58:09;8.10;99.90
19025;DHT22;9645;51.448;6.260;2023-02-01T15:00:47;8.10;99.90
19025;DHT22;9645;51.448;6.260;2023-02-01T15:03:25;8.10;99.90
19025;DHT22;9645;51.448;6.260;2023-02-01T15:05:56;8.00;99.90
19025;DHT22;9645;51.448;6.260;2023-02-01T15:08:26;8.10;99.90
19025;DHT22;9645;51.448;6.260;2023-02-01T15:10:55;8.10;99.90
19025;DHT22;9645;51.448;6.260;2023-02-01T15:13:26;8.00;99.90
19025;DHT22;9645;51.448;6.260;2023-02-01T15:16:01;8.00;99.90
19025;DHT22;9645;51.448;6.260;2023-02-01T15:18:30;8.00;99.90
19025;DHT22;9645;51.448;6.260;2023-02-01T15:20:58;8.00;99.90
19025;DHT22;9645;51.448;6.260;2023-02-01T15:23:26;8.00;99.90
19025;DHT22;9645;51.448;6.260;2023-02-01T15:25:54;8.00;99.90
19025;DHT22;9645;51.448;6.260;2023-02-01T15:28:22;8.00;99.90
19025;DHT22;9645;51.448;6.260;2023-02-01T15:30:56;8.00;99.90
19025;DHT22;9645;51.448;6.260;2023-02-01T15:33:24;7.90;99.90
19025;DHT22;9645;51.448;6.260;2023-02-01T15:35:54;7.90;99.90
19025;DHT22;9645;51.448;6.260;2023-02-01T15:38:33;7.90;99.90
19025;DHT22;9645;51.448;6.260;2023-02-01T15:41:04;7.90;99.90
19025;DHT22;9645;51.448;6.260;2023-02-01T15:43:33;7.90;99.90
19025;DHT22;9645;51.448;6.260;2023-02-01T15:46:03;7.90;99.90
19025;DHT22;9645;51.448;6.260;2023-02-01T15:48:36;7.90;99.90
19025;DHT22;9645;51.448;6.260;2023-02-01T15:51:05;7.80;99.90
19025;DHT22;9645;51.448;6.260;2023-02-01T15:56:01;7.80;99.90
19025;DHT22;9645;51.448;6.260;2023-02-01T16:01:02;7.70;99.90
19025;DHT22;9645;51.448;6.260;2023-02-01T16:03:37;7.80;99.90
19025;DHT22;9645;51.448;6.260;2023-02-01T16:06:10;7.80;99.90
19025;DHT22;9645;51.448;6.260;2023-02-01T16:11:23;7.90;99.90
19025;DHT22;9645;51.448;6.260;2023-02-01T16:13:51;7.70;99.90
19025;DHT22;9645;51.448;6.260;2023-02-01T16:16:18;7.80;99.90
19025;DHT22;9645;51.448;6.260;2023-02-01T16:18:46;7.80;99.90
19025;DHT22;9645;51.448;6.260;2023-02-01T16:21:14;7.70;99.90
19025;DHT22;9645;51.448;6.260;2023-02-01T16:23:42;7.80;99.90
19025;DHT22;9645;51.448;6.260;2023-02-01T16:26:09;7.80;99.90
19025;DHT22;9645;51.448;6.260;2023-02-01T16:28:37;7.80;99.90
19025;DHT22;9645;51.448;6.260;2023-02-01T16:33:33;7.80;99.90
19025;DHT22;9645;51.448;6.260;2023-02-01T16:38:31;7.80;99.90
19025;DHT22;9645;51.448;6.260;2023-02-01T16:43:28;7.80;99.90
19025;DHT22;9645;51.448;6.260;2023-02-01T16:45:59;7.80;99.90
19025;DHT22;9645;51.448;6.260;2023-02-01T16:48:30;7.80;99.90
19025;DHT22;9645;51.448;6.260;2023-02-01T16:50:58;7.80;99.90
19025;DHT22;9645;51.448;6.260;2023-02-01T16:53:28;7.80;99.90
19025;DHT22;9645;51.448;6.260;2023-02-01T16:55:57;7.80;99.90
19025;DHT22;9645;51.448;6.260;2023-02-01T16:58:25;7.80;99.90
19025;DHT22;9645;51.448;6.260;2023-02-01T17:00:53;7.80;99.90
19025;DHT22;9645;51.448;6.260;2023-02-01T17:03:21;7.80;99.90
19025;DHT22;9645;51.448;6.260;2023-02-01T17:05:51;7.70;99.90
19025;DHT22;9645;51.448;6.260;2023-02-01T17:08:27;7.70;99.90
19025;DHT22;9645;51.448;6.260;2023-02-01T17:10:57;7.70;99.90
19025;DHT22;9645;51.448;6.260;2023-02-01T17:13:24;7.70;99.90
19025;DHT22;9645;51.448;6.260;2023-02-01T17:15:56;7.70;99.90
19025;DHT22;9645;51.448;6.260;2023-02-01T17:18:27;7.60;99.90
19025;DHT22;9645;51.448;6.260;2023-02-01T17:20:59;7.60;99.90
19025;DHT22;9645;51.448;6.260;2023-02-01T17:23:28;7.60;99.90
19025;DHT22;9645;51.448;6.260;2023-02-01T17:25:56;7.60;99.90
19025;DHT22;9645;51.448;6.260;2023-02-01T17:28:24;7.60;99.90
19025;DHT22;9645;51.448;6.260;2023-02-01T17:30:51;7.60;99.90
19025;DHT22;9645;51.448;6.260;2023-02-01T17:33:23;7.60;99.90
19025;DHT22;9645;51.448;6.260;2023-02-01T17:35:51;7.60;99.90
19025;DHT22;9645;51.448;6.260;2023-02-01T17:38:19;7.60;99.90
19025;DHT22;9645;51.448;6.260;2023-02-01T17:40:46;7.50;99.90
19025;DHT22;9645;51.448;6.260;2023-02-01T17:43:17;7.60;99.90
19025;DHT22;9645;51.448;6.260;2023-02-01T17:45:46;7.60;99.90
19025;DHT22;9645;51.448;6.260;2023-02-01T17:48:17;7.50;99.90
19025;DHT22;9645;51.448;6.260;2023-02-01T17:50:46;7.60;99.90
19025;DHT22;9645;51.448;6.260;2023-02-01T17:55:50;7.60;99.90
19025;DHT22;9645;51.448;6.260;2023-02-01T17:58:19;7.50;99.90
19025;DHT22;9645;51.448;6.260;2023-02-01T18:00:48;7.70;99.90
19025;DHT22;9645;51.448;6.260;2023-02-01T18:03:23;7.60;99.90
19025;DHT22;9645;51.448;6.260;2023-02-01T18:05:51;7.60;99.90
19025;DHT22;9645;51.448;6.260;2023-02-01T18:08:20;7.70;99.90
19025;DHT22;9645;51.448;6.260;2023-02-01T18:10:49;7.60;99.90
19025;DHT22;9645;51.448;6.260;2023-02-01T18:13:17;7.60;99.90
19025;DHT22;9645;51.448;6.260;2023-02-01T18:15:45;7.60;99.90
19025;DHT22;9645;51.448;6.260;2023-02-01T18:18:12;7.70;99.90
19025;DHT22;9645;51.448;6.260;2023-02-01T18:20:40;7.70;99.90
19025;DHT22;9645;51.448;6.260;2023-02-01T18:23:14;7.70;99.90
19025;DHT22;9645;51.448;6.260;2023-02-01T18:25:42;7.60;99.90
19025;DHT22;9645;51.448;6.260;2023-02-01T18:28:11;7.70;99.90
19025;DHT22;9645;51.448;6.260;2023-02-01T18:30:38;7.60;99.90
19025;DHT22;9645;51.448;6.260;2023-02-01T18:33:09;7.70;99.90
19025;DHT22;9645;51.448;6.260;2023-02-01T18:40:33;7.70;99.90
19025;DHT22;9645;51.448;6.260;2023-02-01T18:43:01;7.70;99.90
19025;DHT22;9645;51.448;6.260;2023-02-01T18:45:30;7.70;99.90